Time;durP1;ratioP1;P1;durP2;ratioP2;P2;SDS_P1;SDS_P2;PMS_P1;PMS_P2;Temp;Humidity;BMP_temperature;BMP_pressure;BME280_temperature;BME280_humidity;BME280_pressure;Samples;Min_cycle;Max_cycle;Signal;HPM_P1;HPM_P2
2021/05/27 00:02:29;;;;;;;6.63;4.50;;;;;;;;;;5047534;28;20047;-79
2021/05/27 00:05:14;;;;;;;6.25;4.72;;;;;;;;;;5046212;28;20452;-80
2021/05/27 00:07:59;;;;;;;5.93;4.70;;;;;;;;;;5045463;28;20056;-80
2021/05/27 00:10:43;;;;;;;5.63;4.50;;;;;;;;;;5042606;28;20093;-78
2021/05/27 00:13:27;;;;;;;6.72;4.45;;;;;;;;;;5052599;28;20099;-80
2021/05/27 00:16:12;;;;;;;6.43;4.30;;;;;;;;;;5055351;28;20067;-78
2021/05/27 00:18:56;;;;;;;7.18;4.50;;;;;;;;;;5053604;28;20068;-78
2021/05/27 00:21:41;;;;;;;6.13;4.38;;;;;;;;;;5063160;28;20691;-78
2021/05/27 00:24:26;;;;;;;5.40;4.30;;;;;;;;;;5047304;28;20083;-80
2021/05/27 00:27:10;;;;;;;7.25;4.63;;;;;;;;;;5051385;28;20401;-79
2021/05/27 00:29:55;;;;;;;6.30;4.40;;;;;;;;;;5055549;28;20087;-79
2021/05/27 00:32:39;;;;;;;6.70;4.28;;;;;;;;;;5059186;28;20108;-79
2021/05/27 00:35:23;;;;;;;6.22;4.20;;;;;;;;;;5027825;28;20037;-79
2021/05/27 00:38:08;;;;;;;5.97;4.18;;;;;;;;;;5043563;28;20033;-80
2021/05/27 00:40:53;;;;;;;5.53;4.25;;;;;;;;;;5049453;28;20052;-79
2021/05/27 00:43:37;;;;;;;5.18;4.03;;;;;;;;;;5020517;28;20040;-79
2021/05/27 00:46:22;;;;;;;5.47;3.83;;;;;;;;;;5052357;28;20115;-81
2021/05/27 00:49:06;;;;;;;8.05;4.32;;;;;;;;;;5040265;28;20039;-79
2021/05/27 00:51:51;;;;;;;6.15;4.10;;;;;;;;;;5065082;28;20082;-76
2021/05/27 00:54:35;;;;;;;5.20;3.70;;;;;;;;;;5052066;28;20039;-81
2021/05/27 00:57:24;;;;;;;6.50;3.70;;;;;;;;;;5042685;28;20145;-79
2021/05/27 01:00:09;;;;;;;4.55;3.63;;;;;;;;;;5048010;28;20039;-79
2021/05/27 01:02:54;;;;;;;4.30;3.60;;;;;;;;;;5055845;28;20039;-78
2021/05/27 01:05:39;;;;;;;5.07;3.90;;;;;;;;;;5066848;28;20126;-79
2021/05/27 01:08:24;;;;;;;5.78;3.50;;;;;;;;;;5047722;28;20044;-76
2021/05/27 01:11:09;;;;;;;3.97;3.38;;;;;;;;;;5051688;28;20055;-79
2021/05/27 01:13:54;;;;;;;5.00;3.63;;;;;;;;;;5035539;28;20076;-79
2021/05/27 01:16:38;;;;;;;4.00;2.88;;;;;;;;;;5059149;28;20047;-80
2021/05/27 01:19:23;;;;;;;5.47;3.30;;;;;;;;;;5050098;28;20043;-79
2021/05/27 01:22:07;;;;;;;5.30;3.83;;;;;;;;;;5052283;28;20060;-79
2021/05/27 01:24:52;;;;;;;4.72;3.20;;;;;;;;;;5031667;28;20042;-78
2021/05/27 01:27:36;;;;;;;5.70;3.30;;;;;;;;;;5048005;28;20048;-80
2021/05/27 01:30:21;;;;;;;5.22;3.03;;;;;;;;;;5055482;28;20580;-79
2021/05/27 01:33:08;;;;;;;5.18;3.08;;;;;;;;;;5046677;28;20425;-78
2021/05/27 01:35:56;;;;;;;3.83;2.97;;;;;;;;;;5057853;28;20035;-78
2021/05/27 01:38:41;;;;;;;5.07;2.80;;;;;;;;;;5056377;28;20056;-79
2021/05/27 01:41:25;;;;;;;3.67;2.85;;;;;;;;;;5031288;28;20040;-79
2021/05/27 01:44:10;;;;;;;4.22;2.80;;;;;;;;;;5061167;28;20039;-80
2021/05/27 01:46:54;;;;;;;3.95;2.80;;;;;;;;;;5053035;28;20477;-79
2021/05/27 01:49:40;;;;;;;4.13;3.10;;;;;;;;;;5067768;28;20091;-79
2021/05/27 01:52:24;;;;;;;4.53;2.97;;;;;;;;;;5057602;28;20075;-79
2021/05/27 01:55:09;;;;;;;5.65;3.03;;;;;;;;;;5038343;28;20044;-79
2021/05/27 01:57:55;;;;;;;5.13;2.97;;;;;;;;;;5063712;28;20075;-78
2021/05/27 02:00:40;;;;;;;3.53;2.90;;;;;;;;;;5059719;28;20039;-79
2021/05/27 02:03:25;;;;;;;4.93;3.10;;;;;;;;;;5055532;28;20071;-79
2021/05/27 02:06:09;;;;;;;3.50;2.92;;;;;;;;;;5062695;28;20128;-79
2021/05/27 02:09:10;;;;;;;5.70;3.13;;;;;;;;;;5039855;28;20412;-78
2021/05/27 02:11:54;;;;;;;5.25;2.95;;;;;;;;;;5055510;28;20079;-78
2021/05/27 02:14:39;;;;;;;3.38;2.58;;;;;;;;;;5049976;28;20040;-79
2021/05/27 02:17:23;;;;;;;5.70;2.75;;;;;;;;;;5064245;28;20802;-78
2021/05/27 02:20:08;;;;;;;3.28;2.65;;;;;;;;;;5042577;28;20060;-78
2021/05/27 02:22:53;;;;;;;3.65;2.50;;;;;;;;;;5047454;28;20064;-78
2021/05/27 02:25:37;;;;;;;3.08;2.63;;;;;;;;;;5061600;28;20043;-78
2021/05/27 02:28:22;;;;;;;3.92;2.60;;;;;;;;;;5066672;28;20043;-79
2021/05/27 02:31:06;;;;;;;3.78;2.42;;;;;;;;;;5052567;28;20127;-79
2021/05/27 02:33:51;;;;;;;3.95;2.70;;;;;;;;;;5068440;28;20039;-78
2021/05/27 02:36:36;;;;;;;4.32;2.55;;;;;;;;;;5053396;28;20186;-78
2021/05/27 02:39:20;;;;;;;3.20;2.58;;;;;;;;;;5044100;28;20064;-78
2021/05/27 02:42:05;;;;;;;2.88;2.45;;;;;;;;;;5034484;28;20516;-78
2021/05/27 02:44:49;;;;;;;4.25;2.33;;;;;;;;;;5034710;28;20044;-78
2021/05/27 02:47:34;;;;;;;3.30;2.50;;;;;;;;;;5047621;28;20818;-78
2021/05/27 02:50:19;;;;;;;3.28;2.35;;;;;;;;;;5057621;28;20059;-78
2021/05/27 02:53:04;;;;;;;3.58;2.60;;;;;;;;;;5056408;28;20652;-78
2021/05/27 02:55:48;;;;;;;3.45;2.33;;;;;;;;;;5048058;28;20110;-79
2021/05/27 02:58:32;;;;;;;2.83;2.20;;;;;;;;;;5050342;28;20095;-78
2021/05/27 03:01:17;;;;;;;4.30;2.50;;;;;;;;;;5048955;28;20032;-78
2021/05/27 03:04:02;;;;;;;4.43;2.10;;;;;;;;;;5031437;28;20405;-78
2021/05/27 03:06:47;;;;;;;3.50;2.22;;;;;;;;;;5049920;28;20066;-78
2021/05/27 03:09:32;;;;;;;2.83;2.17;;;;;;;;;;5050513;28;20455;-78
2021/05/27 03:12:16;;;;;;;3.28;2.30;;;;;;;;;;5064357;28;20132;-78
2021/05/27 03:15:01;;;;;;;3.40;2.53;;;;;;;;;;5053247;28;20099;-78
2021/05/27 03:17:46;;;;;;;3.47;2.55;;;;;;;;;;5055073;28;20043;-78
2021/05/27 03:20:31;;;;;;;4.15;2.20;;;;;;;;;;5051595;28;20096;-79
2021/05/27 03:23:16;;;;;;;3.42;2.38;;;;;;;;;;5065753;28;20451;-79
2021/05/27 03:26:01;;;;;;;2.85;2.15;;;;;;;;;;5027876;28;20044;-78
2021/05/27 03:28:45;;;;;;;3.22;2.08;;;;;;;;;;5065656;28;20828;-78
2021/05/27 03:31:30;;;;;;;3.97;2.15;;;;;;;;;;5024160;28;20039;-78
2021/05/27 03:34:15;;;;;;;3.80;2.38;;;;;;;;;;5039661;28;20476;-79
2021/05/27 03:36:59;;;;;;;3.20;2.30;;;;;;;;;;5027686;28;20040;-78
2021/05/27 03:40:10;;;;;;;3.50;2.17;;;;;;;;;;5035203;28;20096;-78
2021/05/27 03:42:49;;;;;;;4.22;2.03;;;;;;;;;;5041008;28;20051;-78
2021/05/27 03:45:35;;;;;;;5.03;2.22;;;;;;;;;;5028806;28;20051;-78
2021/05/27 03:48:19;;;;;;;4.80;2.00;;;;;;;;;;5042902;28;20048;-78
2021/05/27 03:51:04;;;;;;;2.70;2.00;;;;;;;;;;5046370;28;20102;-78
2021/05/27 03:53:49;;;;;;;2.47;2.00;;;;;;;;;;5030676;28;20072;-79
2021/05/27 03:56:33;;;;;;;2.95;2.13;;;;;;;;;;5040225;28;20067;-78
2021/05/27 04:02:22;;;;;;;4.85;2.22;;;;;;;;;;5041141;28;20503;-78
2021/05/27 04:08:10;;;;;;;3.05;2.08;;;;;;;;;;5044397;28;20052;-79
2021/05/27 04:10:55;;;;;;;3.63;1.92;;;;;;;;;;5045293;28;20130;-79
2021/05/27 04:13:40;;;;;;;3.85;2.10;;;;;;;;;;5041993;28;20067;-79
2021/05/27 04:16:24;;;;;;;3.33;2.00;;;;;;;;;;5042928;28;20528;-79
2021/05/27 04:19:09;;;;;;;2.58;2.00;;;;;;;;;;5041402;28;20133;-79
2021/05/27 04:21:53;;;;;;;3.95;2.10;;;;;;;;;;5029439;28;20036;-78
2021/05/27 04:24:38;;;;;;;3.25;1.80;;;;;;;;;;5045664;28;20043;-78
2021/05/27 04:27:22;;;;;;;3.40;2.00;;;;;;;;;;5048415;28;20059;-78
2021/05/27 04:30:14;;;;;;;3.20;1.95;;;;;;;;;;5044034;28;20654;-78
2021/05/27 04:33:03;;;;;;;3.85;1.90;;;;;;;;;;5042951;28;20038;-78
2021/05/27 04:35:48;;;;;;;2.83;1.90;;;;;;;;;;5056403;28;20051;-78
2021/05/27 04:38:33;;;;;;;2.90;2.08;;;;;;;;;;5056567;28;20413;-78
2021/05/27 04:41:17;;;;;;;2.90;1.90;;;;;;;;;;5032981;28;20044;-79
2021/05/27 04:44:02;;;;;;;3.45;1.88;;;;;;;;;;5039794;28;20039;-78
2021/05/27 04:46:47;;;;;;;3.90;1.95;;;;;;;;;;5052363;28;20060;-78
2021/05/27 04:49:32;;;;;;;3.97;1.83;;;;;;;;;;5057132;28;20187;-78
2021/05/27 04:52:16;;;;;;;2.85;1.95;;;;;;;;;;5057101;28;20067;-79
2021/05/27 04:55:01;;;;;;;3.80;1.92;;;;;;;;;;5049948;28;20048;-78
2021/05/27 04:57:45;;;;;;;3.05;1.80;;;;;;;;;;5062749;28;20120;-78
2021/05/27 05:00:30;;;;;;;2.88;1.85;;;;;;;;;;5063582;28;20508;-78
2021/05/27 05:03:15;;;;;;;2.30;1.60;;;;;;;;;;5056190;28;20578;-78
2021/05/27 05:05:59;;;;;;;3.75;2.10;;;;;;;;;;5055098;28;20197;-77
2021/05/27 05:08:44;;;;;;;3.38;2.10;;;;;;;;;;5049068;28;20048;-76
2021/05/27 05:11:29;;;;;;;3.97;2.33;;;;;;;;;;5066627;28;20110;-79
2021/05/27 05:14:13;;;;;;;2.67;1.98;;;;;;;;;;5060129;28;20092;-78
2021/05/27 05:16:58;;;;;;;2.80;2.20;;;;;;;;;;5057587;28;20523;-78
2021/05/27 05:19:42;;;;;;;4.88;1.92;;;;;;;;;;5050635;28;20056;-78
2021/05/27 05:22:27;;;;;;;3.33;2.10;;;;;;;;;;5032897;28;20040;-78
2021/05/27 05:25:11;;;;;;;2.97;2.00;;;;;;;;;;5047295;28;20044;-78
2021/05/27 05:27:56;;;;;;;4.40;2.28;;;;;;;;;;5065494;28;20067;-75
2021/05/27 05:30:41;;;;;;;2.72;1.75;;;;;;;;;;5053381;28;20048;-78
2021/05/27 05:33:26;;;;;;;3.35;1.67;;;;;;;;;;5037519;28;20087;-78
2021/05/27 05:36:10;;;;;;;2.38;1.88;;;;;;;;;;5059193;28;20043;-77
2021/05/27 05:38:55;;;;;;;3.28;2.65;;;;;;;;;;5058319;28;20127;-78
2021/05/27 05:41:41;;;;;;;3.10;1.80;;;;;;;;;;5048758;28;20071;-78
2021/05/27 05:44:25;;;;;;;4.75;2.20;;;;;;;;;;5020999;28;20408;-78
2021/05/27 05:47:10;;;;;;;3.13;2.00;;;;;;;;;;5055317;28;20075;-79
2021/05/27 05:49:54;;;;;;;4.50;1.98;;;;;;;;;;5038448;28;20061;-78
2021/05/27 05:52:39;;;;;;;2.42;2.22;;;;;;;;;;5065578;28;20062;-78
2021/05/27 05:55:24;;;;;;;4.57;2.03;;;;;;;;;;5038162;28;20074;-78
2021/05/27 05:58:08;;;;;;;2.65;1.70;;;;;;;;;;5032142;28;20036;-78
2021/05/27 06:00:53;;;;;;;3.80;2.03;;;;;;;;;;5053256;28;20078;-78
2021/05/27 06:03:38;;;;;;;4.25;2.05;;;;;;;;;;5030836;28;20401;-78
2021/05/27 06:06:22;;;;;;;2.92;1.90;;;;;;;;;;5045089;28;20086;-79
2021/05/27 06:09:07;;;;;;;2.65;2.00;;;;;;;;;;5064146;28;20074;-78
2021/05/27 06:11:52;;;;;;;3.22;2.03;;;;;;;;;;5058424;28;20082;-78
2021/05/27 06:14:36;;;;;;;3.47;1.98;;;;;;;;;;5046626;28;20404;-79
2021/05/27 06:17:21;;;;;;;3.72;2.00;;;;;;;;;;5056172;28;20097;-78
2021/05/27 06:20:06;;;;;;;3.13;2.17;;;;;;;;;;5061873;28;20047;-79
2021/05/27 06:22:50;;;;;;;3.92;2.22;;;;;;;;;;5040862;28;20098;-79
2021/05/27 06:25:37;;;;;;;3.72;2.20;;;;;;;;;;5046837;28;20047;-78
2021/05/27 06:28:22;;;;;;;5.07;2.28;;;;;;;;;;5055895;28;20031;-79
2021/05/27 06:31:07;;;;;;;4.22;2.28;;;;;;;;;;5046697;28;20436;-78
2021/05/27 06:33:52;;;;;;;3.75;2.00;;;;;;;;;;5026497;28;20397;-79
2021/05/27 06:36:36;;;;;;;3.00;2.08;;;;;;;;;;5039126;28;20039;-78
2021/05/27 06:39:21;;;;;;;6.18;2.40;;;;;;;;;;5044500;28;20057;-79
2021/05/27 06:42:06;;;;;;;3.60;2.40;;;;;;;;;;5048261;28;20040;-79
2021/05/27 06:44:50;;;;;;;4.15;2.40;;;;;;;;;;5049222;28;20143;-79
2021/05/27 06:47:35;;;;;;;4.25;2.40;;;;;;;;;;5046717;28;20071;-78
2021/05/27 06:50:32;;;;;;;3.90;2.20;;;;;;;;;;5051404;28;20131;-79
2021/05/27 06:53:17;;;;;;;5.35;2.67;;;;;;;;;;5050397;28;20048;-79
2021/05/27 06:56:02;;;;;;;3.65;2.15;;;;;;;;;;5051985;28;20163;-78
2021/05/27 06:58:46;;;;;;;4.50;2.30;;;;;;;;;;5052345;28;20051;-79
2021/05/27 07:01:31;;;;;;;3.90;2.15;;;;;;;;;;5049639;28;20504;-78
2021/05/27 07:04:16;;;;;;;3.38;2.35;;;;;;;;;;5038181;28;20559;-79
2021/05/27 07:07:01;;;;;;;4.47;2.40;;;;;;;;;;5052252;28;20036;-77
2021/05/27 07:09:46;;;;;;;6.80;2.88;;;;;;;;;;5047618;28;20537;-77
2021/05/27 07:12:31;;;;;;;3.97;2.42;;;;;;;;;;5058314;28;20117;-78
2021/05/27 07:15:17;;;;;;;3.95;2.40;;;;;;;;;;5049246;28;20433;-78
2021/05/27 07:18:02;;;;;;;3.45;2.33;;;;;;;;;;5048805;28;20735;-78
2021/05/27 07:20:47;;;;;;;3.45;2.20;;;;;;;;;;5038316;28;20053;-78
2021/05/27 07:23:31;;;;;;;3.33;2.20;;;;;;;;;;5066285;28;20063;-78
2021/05/27 07:26:16;;;;;;;3.47;2.42;;;;;;;;;;5029326;28;20640;-79
2021/05/27 07:29:01;;;;;;;2.83;1.98;;;;;;;;;;5038909;28;20040;-78
2021/05/27 07:31:45;;;;;;;3.78;2.30;;;;;;;;;;5050193;28;20086;-78
2021/05/27 07:34:30;;;;;;;4.70;2.55;;;;;;;;;;5063834;28;20051;-78
2021/05/27 07:37:15;;;;;;;4.53;2.65;;;;;;;;;;5046149;28;20036;-80
2021/05/27 07:39:59;;;;;;;3.90;2.70;;;;;;;;;;5047047;28;20597;-79
2021/05/27 07:42:44;;;;;;;2.90;2.30;;;;;;;;;;5040491;28;20447;-79
2021/05/27 07:45:28;;;;;;;3.83;2.47;;;;;;;;;;5037800;28;20095;-78
2021/05/27 07:48:13;;;;;;;3.38;2.33;;;;;;;;;;5048934;28;20051;-79
2021/05/27 07:50:57;;;;;;;3.78;2.53;;;;;;;;;;5032388;28;20405;-79
2021/05/27 07:53:42;;;;;;;3.83;2.30;;;;;;;;;;5060041;28;20396;-78
2021/05/27 07:56:27;;;;;;;3.40;2.25;;;;;;;;;;5053271;28;20468;-79
2021/05/27 07:59:13;;;;;;;3.78;2.40;;;;;;;;;;5042853;28;20040;-78
2021/05/27 08:01:58;;;;;;;4.07;2.40;;;;;;;;;;5057051;28;20043;-78
2021/05/27 08:04:43;;;;;;;3.22;2.28;;;;;;;;;;5067675;28;20047;-78
2021/05/27 08:07:27;;;;;;;2.97;2.20;;;;;;;;;;5046183;28;20045;-79
2021/05/27 08:10:12;;;;;;;2.72;2.30;;;;;;;;;;5041748;28;20091;-78
2021/05/27 08:12:57;;;;;;;3.40;1.92;;;;;;;;;;5053821;28;20126;-78
2021/05/27 08:15:42;;;;;;;3.30;2.30;;;;;;;;;;5045515;28;20086;-78
2021/05/27 08:18:26;;;;;;;3.35;2.28;;;;;;;;;;5045262;28;20052;-79
2021/05/27 08:21:11;;;;;;;3.38;2.20;;;;;;;;;;5018101;28;20040;-77
2021/05/27 08:23:56;;;;;;;3.83;2.33;;;;;;;;;;5046480;28;20476;-77
2021/05/27 08:26:41;;;;;;;3.00;2.40;;;;;;;;;;5053095;28;20551;-76
2021/05/27 08:29:25;;;;;;;4.20;2.10;;;;;;;;;;5042498;28;20039;-78
2021/05/27 08:32:10;;;;;;;2.75;2.20;;;;;;;;;;5046423;28;20036;-78
2021/05/27 08:34:55;;;;;;;5.35;2.45;;;;;;;;;;5040600;28;20106;-78
2021/05/27 08:37:39;;;;;;;3.05;2.15;;;;;;;;;;5056230;28;20040;-79
2021/05/27 08:40:24;;;;;;;3.08;2.03;;;;;;;;;;5043745;28;20047;-78
2021/05/27 08:43:08;;;;;;;2.85;2.00;;;;;;;;;;5034377;28;20083;-78
2021/05/27 08:45:53;;;;;;;2.50;1.98;;;;;;;;;;5065340;28;20044;-78
2021/05/27 08:48:37;;;;;;;3.25;2.10;;;;;;;;;;5037638;28;20039;-79
2021/05/27 08:51:22;;;;;;;3.45;2.10;;;;;;;;;;5054747;28;20129;-78
2021/05/27 08:54:07;;;;;;;2.88;2.00;;;;;;;;;;5064033;28;20036;-78
2021/05/27 08:56:52;;;;;;;3.22;2.15;;;;;;;;;;5043403;28;20911;-79
2021/05/27 08:59:36;;;;;;;3.78;2.08;;;;;;;;;;5042521;28;20083;-78
2021/05/27 09:02:21;;;;;;;4.28;2.20;;;;;;;;;;5032723;28;20401;-78
2021/05/27 09:05:15;;;;;;;3.40;1.90;;;;;;;;;;5041556;28;20043;-79
2021/05/27 09:08:00;;;;;;;2.78;2.00;;;;;;;;;;5052470;28;20052;-79
2021/05/27 09:10:48;;;;;;;3.83;2.30;;;;;;;;;;5015317;28;20450;-78
2021/05/27 09:13:33;;;;;;;3.17;2.10;;;;;;;;;;5028486;28;20055;-79
2021/05/27 09:16:18;;;;;;;3.05;2.03;;;;;;;;;;5046372;28;20464;-79
2021/05/27 09:19:17;;;;;;;3.25;2.15;;;;;;;;;;5042097;28;20048;-78
2021/05/27 09:22:02;;;;;;;3.60;2.00;;;;;;;;;;5028317;28;20083;-79
2021/05/27 09:24:47;;;;;;;2.67;2.00;;;;;;;;;;5050878;28;20039;-78
2021/05/27 09:27:47;;;;;;;3.53;2.00;;;;;;;;;;5055501;28;20044;-79
2021/05/27 09:30:41;;;;;;;2.85;1.90;;;;;;;;;;5052314;28;20581;-78
2021/05/27 09:33:35;;;;;;;2.50;2.00;;;;;;;;;;5051345;28;20464;-79
2021/05/27 09:36:22;;;;;;;3.65;2.00;;;;;;;;;;5027543;28;20513;-79
2021/05/27 09:39:07;;;;;;;3.35;2.10;;;;;;;;;;5041848;28;20849;-79
2021/05/27 09:42:02;;;;;;;2.80;1.70;;;;;;;;;;5025408;28;20044;-79
2021/05/27 09:44:47;;;;;;;2.75;1.80;;;;;;;;;;5020227;28;20386;-79
2021/05/27 09:47:32;;;;;;;2.88;2.08;;;;;;;;;;5050626;28;20032;-76
2021/05/27 09:50:16;;;;;;;3.95;2.00;;;;;;;;;;5054755;28;20035;-78
2021/05/27 09:53:14;;;;;;;3.53;1.83;;;;;;;;;;5049050;28;20043;-75
2021/05/27 09:55:59;;;;;;;3.05;2.00;;;;;;;;;;5033018;28;20043;-81
2021/05/27 09:58:53;;;;;;;2.75;2.05;;;;;;;;;;5047602;28;20055;-78
2021/05/27 10:01:41;;;;;;;2.80;1.90;;;;;;;;;;5030678;28;20095;-79
2021/05/27 10:04:25;;;;;;;2.63;1.90;;;;;;;;;;5032657;28;20036;-78
2021/05/27 10:07:30;;;;;;;2.90;2.10;;;;;;;;;;5062287;28;20043;-78
2021/05/27 10:10:19;;;;;;;2.80;2.00;;;;;;;;;;5066615;28;20048;-78
2021/05/27 10:13:03;;;;;;;3.17;1.90;;;;;;;;;;5043936;28;20059;-78
2021/05/27 10:15:48;;;;;;;2.75;1.90;;;;;;;;;;5065015;28;20039;-81
2021/05/27 10:18:32;;;;;;;2.90;1.98;;;;;;;;;;5049486;28;20055;-75
2021/05/27 10:21:17;;;;;;;2.78;1.90;;;;;;;;;;5035087;28;20513;-75
2021/05/27 10:24:03;;;;;;;2.42;1.80;;;;;;;;;;5040521;28;20083;-75
2021/05/27 10:26:48;;;;;;;2.40;1.80;;;;;;;;;;5026265;28;20048;-75
2021/05/27 10:29:32;;;;;;;3.13;1.80;;;;;;;;;;5026205;28;20548;-74
2021/05/27 10:32:18;;;;;;;3.15;1.80;;;;;;;;;;5035480;28;20394;-75
2021/05/27 10:35:03;;;;;;;2.88;1.77;;;;;;;;;;5008066;28;20044;-75
2021/05/27 10:37:48;;;;;;;3.65;1.70;;;;;;;;;;4990575;28;20100;-75
2021/05/27 10:40:33;;;;;;;3.65;1.85;;;;;;;;;;5031935;28;20094;-75
2021/05/27 10:43:18;;;;;;;2.67;1.70;;;;;;;;;;5065640;28;20476;-75
2021/05/27 10:46:05;;;;;;;4.20;1.90;;;;;;;;;;5055160;28;20047;-75
2021/05/27 10:48:50;;;;;;;2.80;1.60;;;;;;;;;;5057384;28;20483;-75
2021/05/27 10:51:45;;;;;;;2.28;1.70;;;;;;;;;;5041451;28;20039;-75
2021/05/27 10:54:29;;;;;;;3.85;1.80;;;;;;;;;;5053077;28;20082;-75
2021/05/27 10:57:34;;;;;;;1.80;1.48;;;;;;;;;;5065634;28;20043;-75
2021/05/27 11:00:18;;;;;;;1.90;1.50;;;;;;;;;;5052556;28;20072;-75
2021/05/27 11:03:22;;;;;;;3.17;1.70;;;;;;;;;;5051703;28;20113;-75
2021/05/27 11:06:26;;;;;;;2.40;1.77;;;;;;;;;;5043748;28;20036;-75
2021/05/27 11:09:19;;;;;;;2.75;1.60;;;;;;;;;;5065886;28;20035;-75
2021/05/27 11:12:11;;;;;;;3.03;1.70;;;;;;;;;;5053836;28;20978;-75
2021/05/27 11:15:04;;;;;;;2.33;1.60;;;;;;;;;;5049005;28;20064;-75
2021/05/27 11:18:07;;;;;;;3.50;1.73;;;;;;;;;;5036223;28;20118;-75
2021/05/27 11:20:57;;;;;;;2.17;1.70;;;;;;;;;;5051001;28;20144;-75
2021/05/27 11:24:32;;;;;;;2.72;1.80;;;;;;;;;;5050836;28;20540;-75
2021/05/27 11:27:23;;;;;;;2.08;1.50;;;;;;;;;;5025657;28;20045;-75
2021/05/27 11:30:14;;;;;;;2.15;1.50;;;;;;;;;;5025458;28;20129;-75
2021/05/27 11:33:05;;;;;;;2.50;1.77;;;;;;;;;;5026534;28;20047;-75
2021/05/27 11:35:50;;;;;;;3.20;1.75;;;;;;;;;;5038919;28;20567;-75
2021/05/27 11:38:36;;;;;;;2.85;1.50;;;;;;;;;;5044487;28;20103;-75
2021/05/27 11:41:20;;;;;;;2.50;1.60;;;;;;;;;;5045178;28;20649;-74
2021/05/27 11:44:05;;;;;;;2.35;1.50;;;;;;;;;;5043930;28;20124;-76
2021/05/27 11:46:54;;;;;;;2.92;1.70;;;;;;;;;;5028363;28;20047;-77
2021/05/27 11:49:57;;;;;;;2.88;1.60;;;;;;;;;;5027270;28;20504;-76
2021/05/27 11:52:42;;;;;;;3.50;1.60;;;;;;;;;;5045475;28;20509;-75
2021/05/27 11:55:28;;;;;;;2.15;1.70;;;;;;;;;;5046112;28;20067;-76
2021/05/27 11:58:12;;;;;;;2.53;1.58;;;;;;;;;;5044852;28;20124;-76
2021/05/27 12:00:57;;;;;;;2.00;1.40;;;;;;;;;;5035446;28;20511;-76
2021/05/27 12:03:41;;;;;;;2.58;1.55;;;;;;;;;;5044781;28;20115;-76
2021/05/27 12:06:26;;;;;;;3.72;1.67;;;;;;;;;;5048604;28;20067;-77
2021/05/27 12:09:14;;;;;;;2.80;1.60;;;;;;;;;;5036622;28;20044;-75
2021/05/27 12:12:14;;;;;;;2.00;1.45;;;;;;;;;;5025357;28;20060;-77
2021/05/27 12:14:59;;;;;;;3.03;1.80;;;;;;;;;;5047531;28;20068;-76
2021/05/27 12:17:46;;;;;;;2.22;1.60;;;;;;;;;;5024673;28;20044;-77
2021/05/27 12:20:35;;;;;;;3.03;1.40;;;;;;;;;;5040825;28;20055;-76
2021/05/27 12:23:20;;;;;;;2.90;1.40;;;;;;;;;;5048171;28;20131;-76
2021/05/27 12:26:05;;;;;;;1.90;1.60;;;;;;;;;;5033849;28;20039;-76
2021/05/27 12:28:50;;;;;;;2.22;1.33;;;;;;;;;;5045626;28;20134;-76
2021/05/27 12:31:34;;;;;;;1.50;1.33;;;;;;;;;;5043705;28;20040;-77
2021/05/27 12:34:20;;;;;;;2.35;1.48;;;;;;;;;;5050452;28;20098;-75
2021/05/27 12:37:06;;;;;;;2.00;1.40;;;;;;;;;;5023854;28;20111;-76
2021/05/27 12:39:51;;;;;;;2.58;1.40;;;;;;;;;;5025789;28;20513;-76
2021/05/27 12:42:36;;;;;;;2.45;1.63;;;;;;;;;;5025977;28;20041;-76
2021/05/27 12:45:28;;;;;;;2.35;1.55;;;;;;;;;;5026551;28;20167;-76
2021/05/27 12:48:14;;;;;;;3.22;1.30;;;;;;;;;;5042239;28;20043;-78
2021/05/27 12:51:03;;;;;;;1.98;1.30;;;;;;;;;;5028208;28;20043;-75
2021/05/27 12:53:48;;;;;;;4.32;1.48;;;;;;;;;;5048059;28;20518;-75
2021/05/27 12:56:32;;;;;;;2.00;1.35;;;;;;;;;;5060428;28;20063;-76
2021/05/27 12:59:17;;;;;;;3.75;1.33;;;;;;;;;;5051965;28;20158;-76
2021/05/27 13:02:02;;;;;;;2.00;1.45;;;;;;;;;;5049115;28;20164;-76
2021/05/27 13:04:47;;;;;;;1.65;1.20;;;;;;;;;;5049099;28;20047;-75
2021/05/27 13:07:32;;;;;;;3.13;1.27;;;;;;;;;;5051514;28;20593;-76
2021/05/27 13:10:26;;;;;;;1.92;1.23;;;;;;;;;;5061460;28;20392;-75
2021/05/27 13:13:11;;;;;;;2.10;1.20;;;;;;;;;;5062905;28;20055;-75
2021/05/27 13:15:56;;;;;;;2.20;1.50;;;;;;;;;;5047304;28;20152;-78
2021/05/27 13:18:50;;;;;;;2.05;1.23;;;;;;;;;;5031236;28;20060;-78
2021/05/27 13:21:44;;;;;;;2.65;1.40;;;;;;;;;;5041792;28;20544;-78
2021/05/27 13:24:28;;;;;;;4.57;1.30;;;;;;;;;;5050128;28;20560;-78
2021/05/27 13:27:28;;;;;;;2.78;1.42;;;;;;;;;;5053410;28;20516;-79
2021/05/27 13:30:35;;;;;;;2.03;1.30;;;;;;;;;;5053653;28;20039;-78
2021/05/27 13:33:20;;;;;;;3.25;1.60;;;;;;;;;;5028799;28;20096;-80
2021/05/27 13:36:05;;;;;;;1.95;1.45;;;;;;;;;;5049048;28;20580;-79
2021/05/27 13:38:50;;;;;;;3.38;1.40;;;;;;;;;;5048649;28;20129;-78
2021/05/27 13:41:35;;;;;;;2.00;1.33;;;;;;;;;;5050092;28;20035;-77
2021/05/27 13:44:19;;;;;;;3.10;1.40;;;;;;;;;;5065774;28;20935;-78
2021/05/27 13:47:04;;;;;;;1.80;1.38;;;;;;;;;;5056249;28;20405;-78
2021/05/27 13:49:49;;;;;;;3.72;1.70;;;;;;;;;;5056578;28;20179;-77
2021/05/27 13:52:33;;;;;;;5.43;1.48;;;;;;;;;;5050597;28;20036;-78
2021/05/27 13:55:20;;;;;;;3.47;1.60;;;;;;;;;;5050646;28;20043;-77
2021/05/27 13:58:05;;;;;;;2.53;1.60;;;;;;;;;;5054127;28;20039;-77
2021/05/27 14:00:49;;;;;;;2.35;1.50;;;;;;;;;;5044642;28;20159;-78
2021/05/27 14:03:34;;;;;;;2.13;1.50;;;;;;;;;;5065486;28;20039;-78
2021/05/27 14:06:19;;;;;;;3.58;1.50;;;;;;;;;;5062291;28;20047;-78
2021/05/27 14:09:05;;;;;;;3.15;1.40;;;;;;;;;;5056999;28;20075;-77
2021/05/27 14:11:50;;;;;;;3.58;1.45;;;;;;;;;;5039213;28;20567;-77
2021/05/27 14:14:34;;;;;;;2.97;1.50;;;;;;;;;;5021611;28;20460;-77
2021/05/27 14:17:20;;;;;;;3.08;1.60;;;;;;;;;;5051332;28;20071;-77
2021/05/27 14:20:05;;;;;;;5.35;1.60;;;;;;;;;;5053411;28;20071;-76
2021/05/27 14:22:51;;;;;;;2.38;1.45;;;;;;;;;;5014823;28;20044;-74
2021/05/27 14:25:36;;;;;;;3.75;1.60;;;;;;;;;;5045687;28;20109;-74
2021/05/27 14:28:21;;;;;;;4.18;1.70;;;;;;;;;;5060460;28;20043;-75
2021/05/27 14:31:05;;;;;;;3.30;1.50;;;;;;;;;;5065528;28;20039;-76
2021/05/27 14:33:50;;;;;;;2.15;1.60;;;;;;;;;;5028505;28;20414;-76
2021/05/27 14:36:36;;;;;;;2.95;1.50;;;;;;;;;;5032858;28;20497;-76
2021/05/27 14:39:21;;;;;;;2.97;1.40;;;;;;;;;;5054161;28;20412;-75
2021/05/27 14:42:06;;;;;;;2.38;1.48;;;;;;;;;;5065236;28;20123;-75
2021/05/27 14:44:50;;;;;;;2.80;1.80;;;;;;;;;;5031124;28;20468;-75
2021/05/27 14:47:35;;;;;;;2.63;1.42;;;;;;;;;;5051406;28;20038;-75
2021/05/27 14:50:30;;;;;;;3.90;1.80;;;;;;;;;;5051160;28;20038;-75
2021/05/27 14:53:15;;;;;;;2.50;1.60;;;;;;;;;;5038080;28;20042;-76
2021/05/27 14:56:00;;;;;;;3.88;1.63;;;;;;;;;;5044841;28;20559;-74
2021/05/27 14:58:45;;;;;;;3.83;1.73;;;;;;;;;;5046288;28;20131;-75
2021/05/27 15:01:29;;;;;;;3.88;1.50;;;;;;;;;;5031098;28;20051;-75
2021/05/27 15:04:14;;;;;;;3.65;1.60;;;;;;;;;;5052429;28;20050;-75
2021/05/27 15:07:01;;;;;;;3.20;1.70;;;;;;;;;;5066041;28;20090;-75
2021/05/27 15:09:46;;;;;;;3.55;1.52;;;;;;;;;;5051464;28;20108;-75
2021/05/27 15:12:31;;;;;;;3.08;1.60;;;;;;;;;;5051349;28;20224;-75
2021/05/27 15:15:16;;;;;;;1.65;1.48;;;;;;;;;;5044510;28;20056;-75
2021/05/27 15:18:01;;;;;;;2.75;1.67;;;;;;;;;;5045625;28;20051;-75
2021/05/27 15:20:45;;;;;;;2.25;1.60;;;;;;;;;;5044619;28;20036;-74
2021/05/27 15:23:30;;;;;;;2.70;1.50;;;;;;;;;;5045801;28;20509;-75
2021/05/27 15:26:15;;;;;;;2.28;1.60;;;;;;;;;;5049076;28;20527;-75
2021/05/27 15:29:00;;;;;;;3.38;1.67;;;;;;;;;;5044524;28;20111;-75
2021/05/27 15:31:44;;;;;;;1.88;1.48;;;;;;;;;;5044574;28;20087;-75
2021/05/27 15:34:29;;;;;;;2.47;1.58;;;;;;;;;;5030410;28;20564;-74
2021/05/27 15:37:14;;;;;;;2.83;1.60;;;;;;;;;;5024231;28;20048;-75
2021/05/27 15:39:59;;;;;;;4.05;1.60;;;;;;;;;;5024232;28;20068;-75
2021/05/27 15:42:44;;;;;;;2.72;1.35;;;;;;;;;;5024239;28;20076;-75
2021/05/27 15:45:29;;;;;;;2.97;1.90;;;;;;;;;;5028653;28;20464;-75
2021/05/27 15:48:17;;;;;;;2.25;1.40;;;;;;;;;;5044294;28;20508;-75
2021/05/27 15:51:02;;;;;;;2.97;1.42;;;;;;;;;;5043898;28;20505;-74
2021/05/27 15:53:46;;;;;;;3.35;1.50;;;;;;;;;;5045272;28;20091;-75
2021/05/27 15:56:30;;;;;;;2.63;1.52;;;;;;;;;;5044275;28;20035;-75
2021/05/27 15:59:15;;;;;;;3.92;1.60;;;;;;;;;;5035661;28;20508;-74
2021/05/27 16:02:00;;;;;;;2.03;1.50;;;;;;;;;;5030574;28;20600;-74
2021/05/27 16:04:45;;;;;;;2.85;1.60;;;;;;;;;;5030116;28;20095;-75
2021/05/27 16:07:29;;;;;;;2.60;1.80;;;;;;;;;;5044215;28;20095;-75
2021/05/27 16:10:15;;;;;;;2.45;1.45;;;;;;;;;;5049281;28;20035;-75
2021/05/27 16:13:00;;;;;;;2.45;1.50;;;;;;;;;;5051207;28;20226;-74
2021/05/27 16:15:44;;;;;;;2.38;1.55;;;;;;;;;;5030373;28;20063;-74
2021/05/27 16:18:29;;;;;;;2.63;1.60;;;;;;;;;;5044630;28;20079;-75
2021/05/27 16:21:13;;;;;;;3.28;1.77;;;;;;;;;;5034263;28;20036;-73
2021/05/27 16:23:58;;;;;;;3.65;1.80;;;;;;;;;;5047093;28;20047;-75
2021/05/27 16:26:43;;;;;;;5.60;2.17;;;;;;;;;;5043009;28;20492;-76
2021/05/27 16:29:27;;;;;;;1.98;1.70;;;;;;;;;;5058488;28;20369;-76
2021/05/27 16:32:12;;;;;;;2.22;1.80;;;;;;;;;;5038685;28;20036;-75
2021/05/27 16:38:21;;;;;;;3.10;1.98;;;;;;;;;;5024492;28;20047;-75
2021/05/27 16:41:07;;;;;;;3.95;1.77;;;;;;;;;;5070986;28;20063;-76
2021/05/27 16:43:52;;;;;;;2.70;1.88;;;;;;;;;;5048190;28;20492;-75
2021/05/27 16:46:36;;;;;;;2.75;1.75;;;;;;;;;;5026405;28;20048;-75